Time;durP1;ratioP1;P1;durP2;ratioP2;P2;SDS_P1;SDS_P2;PMS_P1;PMS_P2;Temp;Humidity;BMP_temperature;BMP_pressure;BME280_temperature;BME280_humidity;BME280_pressure;Samples;Min_cycle;Max_cycle;Signal;HPM_P1;HPM_P2
2022/07/19 00:01:34;;;;;;;21.52;8.60;;;;;;;18.70;87.59;101657.59;5022087;28;20493;-75
2022/07/19 00:04:00;;;;;;;20.05;9.00;;;;;;;18.70;87.19;101652.13;5013149;28;20022;-75
2022/07/19 00:06:25;;;;;;;20.63;9.05;;;;;;;18.66;86.25;101651.56;5020134;28;20022;-75
2022/07/19 00:08:50;;;;;;;19.73;9.05;;;;;;;18.64;86.54;101653.56;5026595;28;20032;-75
2022/07/19 00:11:16;;;;;;;18.70;8.38;;;;;;;18.60;85.06;101654.88;5022581;28;20029;-75
2022/07/19 00:13:41;;;;;;;21.08;8.38;;;;;;;18.57;84.95;101646.16;5021493;28;20386;-75
2022/07/19 00:16:07;;;;;;;19.00;8.55;;;;;;;18.52;85.56;101646.56;5023424;28;20386;-75
2022/07/19 00:18:32;;;;;;;19.05;8.70;;;;;;;18.47;85.65;101641.53;5027153;28;20292;-75
2022/07/19 00:20:57;;;;;;;19.50;8.52;;;;;;;18.45;85.86;101643.56;5019153;28;20064;-75
2022/07/19 00:23:23;;;;;;;20.42;8.70;;;;;;;18.45;85.83;101645.44;5023474;28;20044;-75
2022/07/19 00:25:48;;;;;;;22.13;9.18;;;;;;;18.45;85.99;101645.44;5018346;28;20088;-75
2022/07/19 00:28:13;;;;;;;21.65;8.75;;;;;;;18.46;85.96;101638.97;5029298;28;20042;-75
2022/07/19 00:30:39;;;;;;;23.88;10.32;;;;;;;18.44;86.61;101635.56;5028498;28;20021;-75
2022/07/19 00:33:08;;;;;;;21.17;10.95;;;;;;;18.40;86.45;101634.97;5017361;28;20397;-75
2022/07/19 00:35:34;;;;;;;22.05;10.13;;;;;;;18.36;86.80;101628.13;5023481;28;20025;-75
2022/07/19 00:38:04;;;;;;;22.10;10.18;;;;;;;18.32;86.53;101632.97;5014907;28;20033;-75
2022/07/19 00:40:30;;;;;;;21.55;10.30;;;;;;;18.30;86.75;101632.28;5022905;28;20043;-75
2022/07/19 00:42:56;;;;;;;22.55;12.00;;;;;;;18.28;86.77;101630.69;5034464;28;20120;-75
2022/07/19 00:45:22;;;;;;;20.13;9.68;;;;;;;18.24;86.55;101630.09;5026936;28;20036;-75
2022/07/19 00:47:47;;;;;;;23.60;10.50;;;;;;;18.20;86.55;101625.97;5029276;28;20034;-75
2022/07/19 00:50:13;;;;;;;19.23;9.23;;;;;;;18.18;86.51;101622.53;5028629;28;20026;-75
2022/07/19 00:52:39;;;;;;;20.58;8.82;;;;;;;18.11;86.31;101619.53;5027584;28;20169;-75
2022/07/19 00:55:06;;;;;;;26.02;9.20;;;;;;;18.08;85.75;101625.25;5021373;28;20034;-75
2022/07/19 00:57:33;;;;;;;20.08;9.50;;;;;;;18.06;86.41;101623.69;5012518;28;20018;-75
2022/07/19 00:59:59;;;;;;;23.08;10.38;;;;;;;18.06;86.99;101627.25;5012481;28;20573;-75
2022/07/19 01:02:25;;;;;;;22.02;9.98;;;;;;;18.08;85.62;101627.97;5023806;28;20166;-74
2022/07/19 01:04:50;;;;;;;20.00;9.55;;;;;;;18.07;85.83;101623.53;5030121;28;20115;-74
2022/07/19 01:07:16;;;;;;;22.80;10.68;;;;;;;18.07;86.44;101626.25;5027261;28;20030;-74
2022/07/19 01:09:42;;;;;;;26.30;10.90;;;;;;;18.03;87.26;101624.81;5032390;28;20477;-75
2022/07/19 01:12:08;;;;;;;25.10;10.30;;;;;;;17.99;86.59;101621.53;5033095;28;20017;-74
2022/07/19 01:14:35;;;;;;;19.33;8.95;;;;;;;17.98;85.76;101627.13;5028463;28;20478;-74
2022/07/19 01:17:01;;;;;;;22.25;9.68;;;;;;;17.92;85.84;101624.94;5022428;28;20038;-74
2022/07/19 01:19:27;;;;;;;21.63;10.13;;;;;;;17.87;86.33;101628.06;5026596;28;20381;-74
2022/07/19 01:21:52;;;;;;;20.05;8.93;;;;;;;17.88;86.49;101623.47;5023783;28;20125;-74
2022/07/19 01:24:17;;;;;;;19.80;9.32;;;;;;;17.86;85.91;101622.75;5027451;28;20033;-74
2022/07/19 01:26:42;;;;;;;19.45;9.20;;;;;;;17.82;85.35;101614.88;5035192;28;20378;-74
2022/07/19 01:29:13;;;;;;;18.95;8.82;;;;;;;17.79;85.46;101615.19;5025368;28;20029;-74
2022/07/19 01:31:38;;;;;;;20.20;9.45;;;;;;;17.72;85.39;101622.19;5029125;28;20325;-75
2022/07/19 01:34:04;;;;;;;20.42;9.15;;;;;;;17.70;85.43;101621.47;5032772;28;20446;-75
2022/07/19 01:36:29;;;;;;;19.48;9.13;;;;;;;17.70;84.93;101623.31;5033760;28;20032;-75
2022/07/19 01:38:54;;;;;;;19.80;9.02;;;;;;;17.68;84.78;101626.16;5033853;28;20079;-74
2022/07/19 01:41:20;;;;;;;20.45;8.82;;;;;;;17.65;85.42;101618.28;5033998;28;20040;-74
2022/07/19 01:43:45;;;;;;;20.95;9.88;;;;;;;17.61;85.46;101617.72;5034150;28;20499;-74
2022/07/19 01:46:10;;;;;;;20.17;9.20;;;;;;;17.61;86.11;101620.44;5034074;28;20035;-74
2022/07/19 01:48:36;;;;;;;19.73;8.68;;;;;;;17.59;85.74;101614.28;5032754;28;20528;-74
2022/07/19 01:51:01;;;;;;;22.20;11.00;;;;;;;17.58;86.66;101617.13;5024848;28;20076;-74
2022/07/19 01:53:26;;;;;;;23.10;11.63;;;;;;;17.59;85.92;101616.16;5018134;28;20101;-74
2022/07/19 01:55:52;;;;;;;22.10;11.55;;;;;;;17.58;86.31;101623.41;5032436;28;20404;-74
2022/07/19 01:58:17;;;;;;;21.00;11.95;;;;;;;17.57;86.12;101618.13;5032372;28;20025;-74
2022/07/19 02:00:42;;;;;;;21.35;12.75;;;;;;;17.51;85.37;101611.41;5026828;28;20029;-74
2022/07/19 02:03:08;;;;;;;22.90;13.77;;;;;;;17.46;85.68;101614.53;5024468;28;20045;-74
2022/07/19 02:05:33;;;;;;;22.55;12.82;;;;;;;17.44;85.00;101610.25;5021748;28;20456;-74
2022/07/19 02:08:00;;;;;;;20.65;11.60;;;;;;;17.41;85.57;101616.81;5030227;28;20037;-74
2022/07/19 02:10:25;;;;;;;25.05;13.35;;;;;;;17.37;84.86;101615.38;5031702;28;20026;-75
2022/07/19 02:12:50;;;;;;;27.52;14.27;;;;;;;17.35;84.86;101611.94;5025936;28;20030;-75
2022/07/19 02:15:16;;;;;;;24.90;12.40;;;;;;;17.28;85.48;101617.06;5024153;28;20041;-75
2022/07/19 02:17:41;;;;;;;23.17;12.88;;;;;;;17.26;85.64;101612.75;5025122;28;20221;-74
2022/07/19 02:20:07;;;;;;;23.42;12.63;;;;;;;17.22;86.14;101605.88;5019923;28;20034;-74
2022/07/19 02:22:32;;;;;;;23.45;13.45;;;;;;;17.20;86.15;101611.44;5019127;28;20731;-74
2022/07/19 02:24:58;;;;;;;21.70;13.18;;;;;;;17.20;85.86;101592.41;5030263;28;20519;-74
2022/07/19 02:27:23;;;;;;;25.83;12.73;;;;;;;17.19;85.41;101600.72;5022847;28;20120;-74
2022/07/19 02:29:48;;;;;;;25.23;12.88;;;;;;;17.16;86.15;101596.44;5030961;28;20018;-74
2022/07/19 02:32:14;;;;;;;23.02;12.88;;;;;;;17.12;85.90;101606.69;5030469;28;20432;-74
2022/07/19 02:34:39;;;;;;;22.42;13.45;;;;;;;17.10;85.58;101597.84;5021000;28;20044;-74
2022/07/19 02:37:05;;;;;;;23.33;13.48;;;;;;;17.09;85.58;101595.25;5033588;28;20374;-74
2022/07/19 02:39:30;;;;;;;26.55;14.50;;;;;;;17.07;85.62;101594.53;5029962;28;20075;-74
2022/07/19 02:41:55;;;;;;;26.65;14.18;;;;;;;17.05;85.44;101594.66;5029793;28;20389;-74
2022/07/19 02:44:21;;;;;;;21.27;13.93;;;;;;;16.99;85.68;101595.22;5026951;28;20021;-74
2022/07/19 02:46:47;;;;;;;22.55;14.73;;;;;;;16.99;85.26;101597.09;5032268;28;20025;-74
2022/07/19 02:49:12;;;;;;;24.08;13.95;;;;;;;16.98;85.82;101590.78;5031243;28;20401;-74
2022/07/19 02:51:37;;;;;;;24.10;14.48;;;;;;;16.96;85.22;101592.78;5026326;28;20025;-74
2022/07/19 02:54:03;;;;;;;23.45;13.98;;;;;;;16.92;85.83;101589.44;5031088;28;20393;-74
2022/07/19 02:56:28;;;;;;;23.45;14.50;;;;;;;16.92;85.92;101594.88;5030720;28;20036;-74
2022/07/19 02:58:53;;;;;;;27.13;15.07;;;;;;;16.93;85.35;101590.34;5027783;28;20051;-74
2022/07/19 03:01:18;;;;;;;22.50;13.48;;;;;;;16.94;86.18;101581.16;5020538;28;20389;-74
2022/07/19 03:03:44;;;;;;;25.02;15.20;;;;;;;16.90;86.61;101587.91;5025602;28;20045;-74
2022/07/19 03:06:10;;;;;;;24.08;14.73;;;;;;;16.90;86.22;101587.91;5024083;28;20078;-74
2022/07/19 03:08:36;;;;;;;23.98;14.68;;;;;;;16.87;86.99;101578.16;5019783;28;20033;-74
2022/07/19 03:11:01;;;;;;;24.63;15.55;;;;;;;16.84;86.22;101583.81;5030349;28;20473;-74
2022/07/19 03:13:26;;;;;;;23.58;14.77;;;;;;;16.82;86.18;101580.38;5015440;28;20030;-74
2022/07/19 03:15:52;;;;;;;21.92;14.48;;;;;;;16.78;86.55;101579.78;5028017;28;20029;-74
2022/07/19 03:18:17;;;;;;;22.65;13.73;;;;;;;16.75;85.71;101569.22;5028679;28;20496;-74
2022/07/19 03:20:42;;;;;;;24.15;13.70;;;;;;;16.73;86.26;101568.47;5028960;28;20094;-74
2022/07/19 03:23:07;;;;;;;21.95;13.40;;;;;;;16.72;86.39;101569.47;5026531;28;20029;-74
2022/07/19 03:25:33;;;;;;;23.02;13.15;;;;;;;16.72;86.06;101566.78;5030002;28;20051;-74
2022/07/19 03:27:58;;;;;;;25.15;14.43;;;;;;;16.75;86.51;101569.22;5023359;28;20478;-74
2022/07/19 03:30:23;;;;;;;22.48;13.45;;;;;;;16.75;86.62;101566.50;5022033;28;20389;-74
2022/07/19 03:32:49;;;;;;;22.50;12.75;;;;;;;16.74;86.46;101567.47;5030076;28;20071;-74
2022/07/19 03:35:14;;;;;;;20.98;12.30;;;;;;;16.75;86.05;101566.50;5026825;28;20050;-74
2022/07/19 03:37:39;;;;;;;19.27;11.07;;;;;;;16.74;85.41;101567.47;5020355;28;20090;-74
2022/07/19 03:40:05;;;;;;;22.48;11.60;;;;;;;16.75;85.24;101571.03;5023590;28;20018;-74
2022/07/19 03:42:31;;;;;;;21.67;13.20;;;;;;;16.76;85.83;101573.66;5027794;28;20025;-74
2022/07/19 03:44:56;;;;;;;24.13;14.07;;;;;;;16.78;85.65;101566.22;5021602;28;20116;-74
2022/07/19 03:47:21;;;;;;;25.63;13.50;;;;;;;16.81;85.83;101569.66;5026089;28;20038;-74
2022/07/19 03:49:47;;;;;;;21.80;13.50;;;;;;;16.79;86.46;101561.63;5024191;28;20040;-74
2022/07/19 03:52:13;;;;;;;20.83;12.63;;;;;;;16.78;85.72;101565.38;5019418;28;20478;-74
2022/07/19 03:54:39;;;;;;;23.30;12.82;;;;;;;16.75;84.79;101563.78;5025737;28;20033;-74
2022/07/19 03:57:04;;;;;;;23.50;12.98;;;;;;;16.76;85.11;101570.94;5031622;28;20075;-74
2022/07/19 03:59:29;;;;;;;24.92;14.05;;;;;;;16.78;84.44;101570.81;5030874;28;20560;-74
2022/07/19 04:01:54;;;;;;;22.20;13.45;;;;;;;16.78;84.71;101571.66;5027813;28;20104;-74
2022/07/19 04:04:20;;;;;;;26.27;13.18;;;;;;;16.81;84.80;101569.66;5034135;28;20021;-74
2022/07/19 04:06:46;;;;;;;23.63;14.48;;;;;;;16.83;85.79;101573.09;5029412;28;20430;-74
2022/07/19 04:09:11;;;;;;;27.48;14.30;;;;;;;16.80;86.13;101571.50;5031964;28;20647;-74
2022/07/19 04:11:36;;;;;;;24.33;13.50;;;;;;;16.80;86.67;101570.66;5029713;28;20033;-74
2022/07/19 04:14:02;;;;;;;23.20;13.75;;;;;;;16.78;86.50;101571.66;5028704;28;20025;-74
2022/07/19 04:16:27;;;;;;;23.85;14.70;;;;;;;16.81;87.07;101575.06;5028298;28;20083;-74
2022/07/19 04:18:52;;;;;;;25.00;13.70;;;;;;;16.79;86.81;101569.78;5029444;28;20389;-74
2022/07/19 04:21:18;;;;;;;22.10;13.13;;;;;;;16.76;86.99;101573.66;5022273;28;20029;-74
2022/07/19 04:23:43;;;;;;;23.58;13.70;;;;;;;16.76;87.32;101564.63;5024194;28;20447;-74
2022/07/19 04:26:08;;;;;;;23.38;14.20;;;;;;;16.77;86.70;101572.63;5017311;28;20061;-74
2022/07/19 04:28:33;;;;;;;22.58;13.80;;;;;;;16.80;86.18;101568.81;5012087;28;20385;-74
2022/07/19 04:30:59;;;;;;;25.73;15.85;;;;;;;16.84;85.72;101574.81;5029036;28;20030;-74
2022/07/19 04:33:24;;;;;;;23.88;15.40;;;;;;;16.86;86.83;101568.25;5028841;28;20029;-74
2022/07/19 04:35:49;;;;;;;25.65;16.50;;;;;;;16.86;87.31;101567.41;5015363;28;20022;-74
2022/07/19 04:38:15;;;;;;;25.00;16.63;;;;;;;16.85;86.82;101571.97;5023126;28;20021;-74
2022/07/19 04:40:40;;;;;;;26.98;17.15;;;;;;;16.83;85.10;101565.81;5029778;28;20029;-74
2022/07/19 04:43:06;;;;;;;27.25;17.08;;;;;;;16.86;84.67;101567.41;5027580;28;20025;-74
2022/07/19 04:45:31;;;;;;;23.35;17.02;;;;;;;16.90;86.08;101574.31;5026508;28;20033;-74
2022/07/19 04:47:56;;;;;;;26.55;17.13;;;;;;;16.93;86.08;101580.31;5017532;28;20029;-74
2022/07/19 04:50:22;;;;;;;32.83;19.13;;;;;;;16.94;86.57;101570.31;5018744;28;20139;-74
2022/07/19 04:52:47;;;;;;;32.78;20.00;;;;;;;16.92;86.86;101577.75;5021929;28;20377;-74
2022/07/19 04:55:13;;;;;;;30.83;21.33;;;;;;;16.95;85.40;101580.19;5027811;28;20025;-74
2022/07/19 04:57:38;;;;;;;28.85;20.63;;;;;;;16.98;86.76;101571.75;5022920;28;20029;-74
2022/07/19 05:00:06;;;;;;;27.45;20.33;;;;;;;17.02;87.81;101573.22;5029886;28;20119;-74
2022/07/19 05:02:32;;;;;;;29.60;21.25;;;;;;;17.05;87.32;101569.38;5028270;28;20401;-74
2022/07/19 05:04:57;;;;;;;29.45;21.73;;;;;;;17.09;88.20;101566.22;5017821;28;20035;-74
2022/07/19 05:07:22;;;;;;;34.90;21.95;;;;;;;17.13;87.42;101558.69;5029315;28;20029;-74
2022/07/19 05:09:47;;;;;;;31.10;23.17;;;;;;;17.18;87.14;101566.41;5031463;28;20547;-74
2022/07/19 05:12:13;;;;;;;26.42;20.80;;;;;;;17.21;88.88;101564.28;5030070;28;20065;-74
2022/07/19 05:14:38;;;;;;;30.60;21.77;;;;;;;17.27;88.06;101560.13;5030102;28;20034;-74
2022/07/19 05:17:03;;;;;;;30.92;25.13;;;;;;;17.30;88.95;101560.72;5021237;28;20388;-74
2022/07/19 05:19:28;;;;;;;31.75;24.98;;;;;;;17.35;87.82;101554.88;5027225;28;20025;-74
2022/07/19 05:21:54;;;;;;;34.83;25.27;;;;;;;17.41;88.87;101561.59;5034149;28;20091;-74
2022/07/19 05:24:19;;;;;;;30.67;25.30;;;;;;;17.46;88.63;101568.31;5022926;28;20037;-74
2022/07/19 05:26:44;;;;;;;31.65;24.45;;;;;;;17.53;88.69;101567.78;5028867;28;20503;-74
2022/07/19 05:29:11;;;;;;;31.02;24.75;;;;;;;17.58;88.71;101565.50;5030007;28;20105;-74
2022/07/19 05:31:37;;;;;;;32.55;24.00;;;;;;;17.64;89.07;101564.91;5030194;28;20036;-74
2022/07/19 05:34:02;;;;;;;31.98;24.73;;;;;;;17.71;90.58;101571.50;5029843;28;20516;-74
2022/07/19 05:36:27;;;;;;;36.00;24.42;;;;;;;17.77;90.63;101575.53;5028120;28;20021;-74
2022/07/19 05:38:53;;;;;;;33.72;26.75;;;;;;;17.84;91.00;101581.28;5029150;28;20381;-74
2022/07/19 05:41:21;;;;;;;22.95;14.20;;;;;;;17.89;86.98;101587.13;5022558;28;20029;-73
2022/07/19 05:43:47;;;;;;;19.67;9.65;;;;;;;17.90;81.70;101588.88;5028625;28;20029;-72
2022/07/19 05:46:12;;;;;;;20.92;10.75;;;;;;;17.94;81.70;101585.72;5030776;28;20172;-72
2022/07/19 05:48:37;;;;;;;15.30;6.95;;;;;;;17.97;77.59;101584.59;5030124;28;20068;-72
2022/07/19 05:51:03;;;;;;;19.38;7.65;;;;;;;17.98;74.49;101580.88;5012570;28;20077;-72
2022/07/19 05:53:28;;;;;;;18.90;8.25;;;;;;;17.99;73.58;101586.19;5015512;28;20033;-73
2022/07/19 05:55:54;;;;;;;21.27;10.27;;;;;;;18.03;72.25;101577.72;5033352;28;20030;-72
2022/07/19 05:58:19;;;;;;;19.13;8.35;;;;;;;18.03;70.49;101578.56;5032464;28;20025;-72
2022/07/19 06:03:31;;;;;;;21.00;10.07;;;;;;;18.12;69.46;101577.69;5028055;28;20401;-72
2022/07/19 06:05:56;;;;;;;22.35;11.43;;;;;;;18.24;75.81;101583.00;5032863;28;20065;-73
2022/07/19 06:08:22;;;;;;;21.33;9.98;;;;;;;18.27;72.65;101579.97;5017208;28;20039;-73
2022/07/19 06:10:47;;;;;;;22.98;8.73;;;;;;;18.28;69.17;101581.72;5032152;28;20029;-72
2022/07/19 06:13:13;;;;;;;19.52;7.90;;;;;;;18.30;68.60;101591.44;5028410;28;20029;-72
2022/07/19 06:15:38;;;;;;;19.75;9.05;;;;;;;18.36;67.83;101587.28;5026129;28;20332;-73
2022/07/19 06:18:03;;;;;;;19.73;9.88;;;;;;;18.39;66.89;101578.84;5025914;28;20104;-72
2022/07/19 06:20:28;;;;;;;17.75;8.60;;;;;;;18.44;66.60;101587.41;5031111;28;20485;-72
2022/07/19 06:22:54;;;;;;;21.15;8.80;;;;;;;18.48;65.82;101591.56;5023568;28;20034;-72
2022/07/19 06:25:19;;;;;;;18.75;8.23;;;;;;;18.52;66.38;101583.94;5029171;28;20132;-72
2022/07/19 06:27:45;;;;;;;19.30;8.27;;;;;;;18.56;65.99;101579.94;5030716;28;20040;-73
2022/07/19 06:30:10;;;;;;;19.45;8.30;;;;;;;18.61;65.58;101587.66;5030857;28;20033;-72
2022/07/19 06:32:36;;;;;;;23.67;9.63;;;;;;;18.68;66.05;101586.06;5032307;28;20064;-71
2022/07/19 06:35:01;;;;;;;21.92;8.75;;;;;;;18.77;67.48;101577.03;5031151;28;20036;-71
2022/07/19 06:37:26;;;;;;;19.67;8.05;;;;;;;18.79;65.06;101583.16;5033660;28;20052;-71
2022/07/19 06:39:52;;;;;;;19.42;7.90;;;;;;;18.84;63.98;101580.00;5031986;28;20140;-72
2022/07/19 06:42:17;;;;;;;17.88;7.43;;;;;;;18.88;62.96;101576.00;5028600;28;20025;-72
2022/07/19 06:44:42;;;;;;;17.55;7.55;;;;;;;18.95;62.79;101581.72;5015080;28;20026;-72
2022/07/19 06:47:07;;;;;;;16.42;6.80;;;;;;;19.01;62.39;101573.78;5017558;28;20080;-72
2022/07/19 06:49:33;;;;;;;17.83;7.55;;;;;;;19.09;61.92;101573.03;5026564;28;20033;-72
2022/07/19 06:51:58;;;;;;;22.15;8.35;;;;;;;19.18;62.67;101582.16;5025987;28;20033;-71
2022/07/19 06:54:23;;;;;;;18.02;7.00;;;;;;;19.23;61.39;101581.72;5027806;28;20026;-72
2022/07/19 06:56:49;;;;;;;17.70;7.03;;;;;;;19.30;62.33;101571.94;5031046;28;20022;-72
2022/07/19 06:59:14;;;;;;;15.95;6.20;;;;;;;19.35;61.73;101566.88;5032825;28;20109;-72
2022/07/19 07:01:39;;;;;;;17.77;7.30;;;;;;;19.46;64.58;101582.16;5030327;28;20029;-71
2022/07/19 07:04:05;;;;;;;16.98;6.53;;;;;;;19.50;62.23;101579.00;5032389;28;20036;-71
2022/07/19 07:06:30;;;;;;;16.17;6.53;;;;;;;19.56;62.60;101572.91;5032233;28;20033;-72
2022/07/19 07:08:55;;;;;;;21.17;7.93;;;;;;;19.63;63.04;101575.03;5032616;28;20184;-72
2022/07/19 07:11:21;;;;;;;19.90;7.22;;;;;;;19.70;63.39;101578.84;5030296;28;20021;-71
2022/07/19 07:13:46;;;;;;;18.15;7.60;;;;;;;19.78;64.05;101570.78;5041811;28;20029;-71
2022/07/19 07:16:11;;;;;;;18.38;7.18;;;;;;;19.85;63.73;101569.13;5028142;28;20112;-71
2022/07/19 07:18:36;;;;;;;17.20;6.55;;;;;;;19.93;63.02;101570.22;5028574;28;20369;-72
2022/07/19 07:21:02;;;;;;;17.77;7.00;;;;;;;19.99;62.59;101567.72;5029490;28;20485;-72
2022/07/19 07:23:27;;;;;;;15.13;6.13;;;;;;;20.08;62.54;101571.38;5033155;28;20037;-72
2022/07/19 07:25:53;;;;;;;18.15;6.80;;;;;;;20.16;62.71;101566.00;5029640;28;20049;-72
2022/07/19 07:28:19;;;;;;;17.85;6.78;;;;;;;20.24;63.10;101570.66;5021912;28;20017;-72
2022/07/19 07:30:44;;;;;;;18.50;6.55;;;;;;;20.31;63.24;101571.75;5031868;28;20079;-72
2022/07/19 07:33:10;;;;;;;14.20;5.90;;;;;;;20.38;63.48;101571.94;5031656;28;20384;-71
2022/07/19 07:35:35;;;;;;;20.17;6.90;;;;;;;20.46;63.72;101563.84;5026701;28;20057;-72
2022/07/19 07:38:00;;;;;;;16.95;6.18;;;;;;;20.55;64.09;101564.75;5030658;28;20154;-73
2022/07/19 07:40:26;;;;;;;17.10;6.10;;;;;;;20.78;61.70;101565.09;5033267;28;20021;-73
2022/07/19 07:42:51;;;;;;;13.43;5.53;;;;;;;20.78;63.42;101565.09;5023480;28;20029;-74
2022/07/19 07:45:16;;;;;;;15.65;5.95;;;;;;;20.85;63.62;101557.97;5032456;28;20034;-74
2022/07/19 07:47:41;;;;;;;15.18;5.63;;;;;;;20.90;63.93;101554.72;5028528;28;20174;-74
2022/07/19 07:50:08;;;;;;;15.80;5.50;;;;;;;21.00;63.96;101560.09;5029606;28;20359;-74
2022/07/19 07:52:34;;;;;;;18.25;6.07;;;;;;;21.07;64.34;101558.38;5031114;28;20466;-74
2022/07/19 07:54:59;;;;;;;18.42;6.97;;;;;;;21.27;64.01;101550.78;5029526;28;20033;-74
2022/07/19 07:57:24;;;;;;;15.23;6.45;;;;;;;21.24;64.47;101542.91;5028833;28;20037;-74
2022/07/19 07:59:50;;;;;;;17.50;6.55;;;;;;;21.30;64.42;101543.13;5033959;28;20021;-74
2022/07/19 08:02:15;;;;;;;23.90;6.40;;;;;;;21.35;64.84;101542.59;5042982;28;20083;-73
2022/07/19 08:04:40;;;;;;;15.35;5.93;;;;;;;21.43;64.53;101544.50;5025485;28;20087;-74
2022/07/19 08:07:05;;;;;;;15.35;5.85;;;;;;;21.50;64.60;101545.53;5029074;28;20445;-75
2022/07/19 08:09:31;;;;;;;18.05;5.88;;;;;;;21.56;64.27;101539.44;5044349;28;20589;-75
2022/07/19 08:11:56;;;;;;;15.80;6.00;;;;;;;21.63;64.39;101542.38;5045016;28;20033;-74
2022/07/19 08:14:22;;;;;;;15.48;5.55;;;;;;;21.68;64.71;101542.69;5027364;28;20056;-73
2022/07/19 08:16:47;;;;;;;12.05;5.07;;;;;;;21.75;64.18;101537.41;5028592;28;20474;-74
2022/07/19 08:19:12;;;;;;;15.90;5.65;;;;;;;21.86;63.61;101541.69;5031058;28;20425;-74
2022/07/19 08:21:38;;;;;;;16.27;5.85;;;;;;;21.90;64.33;101543.91;5027018;28;20029;-74
2022/07/19 08:24:03;;;;;;;14.27;6.00;;;;;;;22.12;59.88;101538.78;5024200;28;20029;-75
2022/07/19 08:26:30;;;;;;;12.93;5.57;;;;;;;22.09;63.33;101536.38;5026079;28;20444;-74
2022/07/19 08:28:55;;;;;;;13.63;5.28;;;;;;;22.15;63.12;101533.84;5026121;28;20034;-74
2022/07/19 08:31:20;;;;;;;16.33;6.20;;;;;;;22.16;63.53;101532.78;5028071;28;20087;-74
2022/07/19 08:33:46;;;;;;;13.45;5.50;;;;;;;22.23;62.88;101532.13;5030182;28;20091;-74
2022/07/19 08:36:11;;;;;;;12.98;5.05;;;;;;;22.26;62.92;101529.88;5028995;28;20529;-74
2022/07/19 08:38:40;;;;;;;12.27;5.00;;;;;;;22.33;63.61;101536.41;5030129;28;20032;-74
2022/07/19 08:41:06;;;;;;;16.60;5.63;;;;;;;22.36;62.34;101527.00;5029846;28;20021;-74
2022/07/19 08:43:32;;;;;;;15.75;5.18;;;;;;;22.44;62.62;101526.13;5030614;28;20052;-74
2022/07/19 08:46:00;;;;;;;12.65;5.13;;;;;;;22.57;58.07;101531.91;5027381;28;20026;-74
2022/07/19 08:48:26;;;;;;;18.15;5.78;;;;;;;22.79;57.77;101521.22;5028764;28;20569;-74
2022/07/19 08:50:52;;;;;;;15.18;5.80;;;;;;;22.80;60.58;101520.19;5027004;28;20034;-75
2022/07/19 08:53:18;;;;;;;12.68;5.30;;;;;;;22.87;61.75;101515.69;5027429;28;20037;-75
2022/07/19 08:55:44;;;;;;;12.52;5.75;;;;;;;22.92;61.69;101524.25;5030127;28;20037;-75
2022/07/19 08:58:09;;;;;;;16.17;5.93;;;;;;;22.95;61.62;101512.94;5030001;28;20021;-75
2022/07/19 09:00:34;;;;;;;12.63;5.55;;;;;;;22.98;61.18;101511.72;5029688;28;20056;-75
2022/07/19 09:03:06;;;;;;;15.57;6.35;;;;;;;23.00;62.46;101509.66;5028397;28;20033;-75
2022/07/19 09:05:33;;;;;;;12.80;5.90;;;;;;;23.01;61.07;101517.69;5025669;28;20030;-75
2022/07/19 09:08:10;;;;;;;15.50;6.32;;;;;;;23.12;60.12;101518.34;5026337;28;20160;-75
2022/07/19 09:10:42;;;;;;;17.52;6.38;;;;;;;23.11;60.20;101516.66;5024317;28;20029;-75
2022/07/19 09:13:11;;;;;;;13.65;5.50;;;;;;;23.15;60.87;101513.38;5024102;28;20116;-75
2022/07/19 09:15:42;;;;;;;16.17;6.73;;;;;;;23.20;60.86;101512.84;5024212;28;20025;-75
2022/07/19 09:18:17;;;;;;;13.70;5.57;;;;;;;23.21;60.88;101511.81;5030109;28;20268;-75
2022/07/19 09:20:43;;;;;;;14.57;6.30;;;;;;;23.25;61.41;101509.56;5025395;28;20144;-75
2022/07/19 09:23:09;;;;;;;13.82;5.82;;;;;;;23.29;58.98;101509.00;5028324;28;20036;-75
2022/07/19 09:25:38;;;;;;;16.17;6.20;;;;;;;23.31;60.49;101504.22;5023880;28;20045;-75
2022/07/19 09:28:04;;;;;;;16.42;6.05;;;;;;;23.38;60.65;101501.59;5026166;28;20452;-75
2022/07/19 09:30:37;;;;;;;15.23;6.32;;;;;;;23.64;58.61;101506.72;5032137;28;20045;-75
2022/07/19 09:33:07;;;;;;;15.70;6.22;;;;;;;23.59;59.15;101506.44;5033224;28;20132;-75
2022/07/19 09:35:53;;;;;;;11.82;5.45;;;;;;;23.55;59.54;101511.41;5029200;28;20555;-75
2022/07/19 09:38:18;;;;;;;14.77;6.13;;;;;;;23.58;60.38;101504.72;5031925;28;20504;-75
2022/07/19 09:40:44;;;;;;;14.98;6.25;;;;;;;23.59;58.35;101502.81;5033067;28;20029;-75
2022/07/19 09:43:09;;;;;;;13.88;5.68;;;;;;;23.60;59.62;101502.63;5032102;28;20021;-75
2022/07/19 09:45:34;;;;;;;16.85;5.85;;;;;;;23.65;58.92;101499.38;5031141;28;20025;-75
2022/07/19 09:48:03;;;;;;;12.23;5.28;;;;;;;23.67;60.09;101500.84;5030625;28;20155;-75
2022/07/19 09:50:30;;;;;;;14.15;5.82;;;;;;;23.74;58.76;101496.34;5032550;28;20344;-75
2022/07/19 09:52:58;;;;;;;15.95;5.65;;;;;;;23.78;59.17;101495.97;5032943;28;20033;-75
2022/07/19 09:55:24;;;;;;;11.63;5.70;;;;;;;23.80;58.71;101493.91;5031266;28;20096;-75
2022/07/19 09:57:51;;;;;;;14.05;5.65;;;;;;;23.84;57.74;101492.53;5033806;28;20378;-75
2022/07/19 10:00:18;;;;;;;14.52;6.28;;;;;;;23.86;59.12;101490.47;5031301;28;20035;-75
2022/07/19 10:02:48;;;;;;;13.18;5.82;;;;;;;23.92;60.11;101480.63;5031213;28;20033;-75
2022/07/19 10:05:14;;;;;;;13.38;5.60;;;;;;;23.92;58.28;101486.13;5028939;28;20017;-75
2022/07/19 10:07:40;;;;;;;13.20;5.32;;;;;;;24.02;57.46;101483.97;5030173;28;20084;-75
2022/07/19 10:10:11;;;;;;;14.10;5.40;;;;;;;24.00;59.03;101492.41;5029780;28;20469;-75
2022/07/19 10:12:38;;;;;;;15.82;6.00;;;;;;;24.05;58.78;101486.34;5030288;28;20036;-75
2022/07/19 10:15:05;;;;;;;12.20;5.30;;;;;;;24.08;58.32;101481.31;5027461;28;20076;-75
2022/07/19 10:17:38;;;;;;;12.30;5.43;;;;;;;24.12;58.59;101475.47;5028486;28;20029;-75
2022/07/19 10:20:06;;;;;;;14.95;6.00;;;;;;;24.21;58.07;101488.06;5028721;28;20032;-74
2022/07/19 10:22:32;;;;;;;14.18;5.65;;;;;;;24.19;57.49;101481.91;5027354;28;20052;-75
2022/07/19 10:25:09;;;;;;;13.82;5.88;;;;;;;24.64;53.36;101480.06;5028537;28;20048;-75
2022/07/19 10:27:40;;;;;;;11.65;5.15;;;;;;;24.50;57.05;101481.75;5024218;28;20093;-75
2022/07/19 10:30:11;;;;;;;13.35;5.43;;;;;;;24.52;57.60;101471.41;5041156;28;20032;-75
2022/07/19 10:32:39;;;;;;;12.02;5.22;;;;;;;24.47;56.91;101467.53;5035409;28;20033;-75
2022/07/19 10:35:21;;;;;;;15.65;6.03;;;;;;;24.49;57.14;101466.31;5028142;28;20025;-75
2022/07/19 10:38:02;;;;;;;11.25;5.20;;;;;;;24.46;56.57;101463.09;5029867;28;20033;-75
2022/07/19 10:40:36;;;;;;;12.85;5.75;;;;;;;24.47;56.93;101462.91;5028346;28;20523;-75
2022/07/19 10:43:07;;;;;;;12.95;5.28;;;;;;;24.45;58.01;101459.47;5029828;28;20056;-75
2022/07/19 10:45:33;;;;;;;11.02;5.28;;;;;;;24.49;55.97;101454.47;5029529;28;20033;-75
2022/07/19 10:48:00;;;;;;;13.27;5.43;;;;;;;24.84;50.04;101458.34;5045817;28;20032;-75
2022/07/19 10:50:45;;;;;;;16.27;6.15;;;;;;;25.14;52.49;101450.03;5028028;28;20104;-75
2022/07/19 10:53:31;;;;;;;13.60;5.65;;;;;;;25.03;53.35;101453.28;5030864;28;20029;-75
2022/07/19 10:56:23;;;;;;;14.05;5.55;;;;;;;25.24;52.37;101449.69;5028303;28;20161;-75
2022/07/19 10:59:00;;;;;;;11.32;4.97;;;;;;;25.14;53.67;101447.28;5028937;28;20370;-75
2022/07/19 11:01:27;;;;;;;12.65;4.70;;;;;;;25.04;53.33;101447.59;5026357;28;20025;-75
2022/07/19 11:03:54;;;;;;;14.68;4.55;;;;;;;25.11;51.57;101442.16;5038340;28;20028;-75
2022/07/19 11:06:25;;;;;;;13.05;4.75;;;;;;;24.99;54.03;101435.47;5036817;28;20942;-75
2022/07/19 11:08:56;;;;;;;16.08;5.35;;;;;;;25.47;47.27;101441.28;5027344;28;20485;-75
2022/07/19 11:11:23;;;;;;;13.23;4.75;;;;;;;25.25;52.25;101426.66;5028381;28;20465;-75
2022/07/19 11:13:54;;;;;;;14.25;5.82;;;;;;;25.55;52.03;101426.53;5027658;28;20433;-75